Time;durP1;ratioP1;P1;durP2;ratioP2;P2;SDS_P1;SDS_P2;PMS_P1;PMS_P2;Temp;Humidity;BMP_temperature;BMP_pressure;BME280_temperature;BME280_humidity;BME280_pressure;Samples;Min_cycle;Max_cycle;Signal;HPM_P1;HPM_P2
2023/04/20 00:00:58;;;;;;;1.03;0.83;;;;;;;4.33;100.00;100874.97;5019554;28;20199;-84
2023/04/20 00:03:25;;;;;;;1.93;1.83;;;;;;;4.33;100.00;100889.31;5018251;28;20212;-83
2023/04/20 00:05:50;;;;;;;0.20;0.20;;;;;;;4.33;100.00;100886.59;5027174;28;20207;-84
2023/04/20 00:08:18;;;;;;;3.97;2.67;;;;;;;4.25;100.00;100873.56;5023140;28;20173;-83
2023/04/20 00:10:44;;;;;;;1.60;1.50;;;;;;;4.31;100.00;100871.72;5022087;28;20561;-83
2023/04/20 00:13:10;;;;;;;0.30;0.30;;;;;;;4.26;100.00;100868.97;5022580;28;20207;-83
2023/04/20 00:15:35;;;;;;;3.87;2.27;;;;;;;4.22;100.00;100852.47;5023824;28;20255;-84
2023/04/20 00:18:01;;;;;;;1.13;1.07;;;;;;;4.22;100.00;100855.16;5023779;28;20200;-83
2023/04/20 00:20:27;;;;;;;1.83;1.73;;;;;;;4.21;100.00;100853.53;5021445;28;20187;-84
2023/04/20 00:22:52;;;;;;;2.57;2.37;;;;;;;4.19;100.00;100852.94;5022188;28;20212;-83
2023/04/20 00:25:19;;;;;;;7.40;3.13;;;;;;;4.25;100.00;100838.41;5020153;28;20246;-83
2023/04/20 00:27:45;;;;;;;0.97;0.43;;;;;;;4.29;100.00;100841.41;5020172;28;20263;-82
2023/04/20 00:30:11;;;;;;;5.43;2.63;;;;;;;4.22;100.00;100849.75;5021623;28;20251;-83
2023/04/20 00:32:36;;;;;;;3.60;3.23;;;;;;;4.26;100.00;100847.34;5021012;28;20204;-84
2023/04/20 00:35:02;;;;;;;0.93;0.93;;;;;;;4.29;100.00;100844.09;5020717;28;20264;-83
2023/04/20 00:37:27;;;;;;;2.17;2.03;;;;;;;4.22;100.00;100838.13;5021981;28;20185;-84
2023/04/20 00:39:54;;;;;;;4.40;3.23;;;;;;;4.18;100.00;100846.72;5019774;28;20175;-85
2023/04/20 00:42:19;;;;;;;4.50;3.00;;;;;;;4.20;100.00;100845.69;5021059;28;20237;-83
2023/04/20 00:44:45;;;;;;;0.30;0.30;;;;;;;4.16;100.00;100848.88;5020023;28;20701;-83
2023/04/20 00:47:10;;;;;;;0.43;0.43;;;;;;;4.18;100.00;100845.91;5019005;28;20172;-83
2023/04/20 00:49:36;;;;;;;2.97;2.77;;;;;;;4.13;100.00;100840.47;5026475;28;20165;-84
2023/04/20 00:52:01;;;;;;;0.77;0.77;;;;;;;4.15;100.00;100839.16;5021791;28;20172;-83
2023/04/20 00:54:28;;;;;;;3.43;3.10;;;;;;;4.07;100.00;100830.72;5021295;28;20274;-83
2023/04/20 00:56:56;;;;;;;3.83;2.37;;;;;;;4.08;100.00;100826.94;5006695;28;20224;-83
2023/04/20 00:59:22;;;;;;;2.20;1.77;;;;;;;4.12;100.00;100828.03;5022332;28;20200;-84
2023/04/20 01:01:48;;;;;;;3.17;2.87;;;;;;;4.11;100.00;100829.94;5021692;28;20200;-82
2023/04/20 01:04:13;;;;;;;2.83;2.20;;;;;;;4.11;100.00;100824.53;5025941;28;20219;-83
2023/04/20 01:06:38;;;;;;;11.93;3.63;;;;;;;4.15;100.00;100814.00;5023770;28;20204;-83
2023/04/20 01:09:03;;;;;;;6.30;2.23;;;;;;;4.15;100.00;100814.81;5023829;28;20169;-83
2023/04/20 01:11:29;;;;;;;1.63;1.53;;;;;;;4.12;100.00;100809.94;5027113;28;20173;-83
2023/04/20 01:13:54;;;;;;;2.93;2.73;;;;;;;4.10;100.00;100801.25;5026343;28;20192;-84
2023/04/20 01:16:21;;;;;;;4.17;3.43;;;;;;;4.08;100.00;100798.00;5026425;28;20203;-83
2023/04/20 01:18:48;;;;;;;2.57;2.30;;;;;;;4.09;100.00;100796.13;5026293;28;20204;-83
2023/04/20 01:21:16;;;;;;;3.37;2.30;;;;;;;4.08;100.00;100792.59;5025866;28;20236;-83
2023/04/20 01:23:42;;;;;;;2.50;2.17;;;;;;;4.06;100.00;100796.66;5026428;28;20251;-83
2023/04/20 01:26:09;;;;;;;9.27;1.90;;;;;;;4.11;100.00;100793.97;5026786;28;20179;-83
2023/04/20 01:28:35;;;;;;;2.33;2.13;;;;;;;4.12;100.00;100787.47;5024021;28;20172;-84
2023/04/20 01:31:03;;;;;;;4.87;2.60;;;;;;;4.10;100.00;100787.75;5025326;28;20226;-83
2023/04/20 01:33:29;;;;;;;2.43;2.23;;;;;;;4.09;100.00;100783.41;5029044;28;20287;-82
2023/04/20 01:35:55;;;;;;;4.30;3.90;;;;;;;4.09;100.00;100785.31;5025593;28;20181;-83
2023/04/20 01:38:22;;;;;;;1.20;1.10;;;;;;;4.15;100.00;100781.53;5024323;28;20678;-84
2023/04/20 01:40:47;;;;;;;2.10;1.53;;;;;;;4.12;100.00;100776.66;5025514;28;20172;-83
2023/04/20 01:43:15;;;;;;;4.47;4.07;;;;;;;4.11;100.00;100775.03;5024668;28;20204;-82
2023/04/20 01:45:40;;;;;;;4.17;1.70;;;;;;;4.12;100.00;100777.47;5025076;28;20176;-83
2023/04/20 01:48:06;;;;;;;7.50;1.50;;;;;;;4.11;100.00;100769.63;5024415;28;20244;-83
2023/04/20 01:50:31;;;;;;;1.30;1.20;;;;;;;4.14;100.00;100775.31;5024447;28;20168;-83
2023/04/20 01:52:56;;;;;;;1.97;1.87;;;;;;;4.13;100.00;100781.00;5023570;28;20686;-83
2023/04/20 01:55:22;;;;;;;4.60;4.03;;;;;;;4.13;100.00;100767.47;5023035;28;20596;-83
2023/04/20 01:57:47;;;;;;;0.50;0.50;;;;;;;4.15;100.00;100768.84;5024104;28;20201;-84
2023/04/20 02:00:13;;;;;;;2.13;1.50;;;;;;;4.12;100.00;100763.97;5023180;28;20236;-84
2023/04/20 02:02:38;;;;;;;1.80;1.50;;;;;;;4.14;100.00;100769.91;5022076;28;20196;-82
2023/04/20 02:05:04;;;;;;;3.40;0.97;;;;;;;4.15;100.00;100766.13;5022063;28;20172;-84
2023/04/20 02:07:29;;;;;;;2.57;2.27;;;;;;;4.14;100.00;100766.41;5021830;28;20275;-83
2023/04/20 02:09:55;;;;;;;0.60;0.60;;;;;;;4.15;100.00;100766.13;5022881;28;20176;-83
2023/04/20 02:12:20;;;;;;;2.50;1.50;;;;;;;4.17;100.00;100760.47;5020135;28;20208;-82
2023/04/20 02:14:46;;;;;;;3.40;3.03;;;;;;;4.17;100.00;100765.88;5021254;28;20231;-83
2023/04/20 02:17:12;;;;;;;6.70;3.93;;;;;;;4.17;100.00;100761.28;5024323;28;20180;-84
2023/04/20 02:19:38;;;;;;;3.90;2.70;;;;;;;4.16;100.00;100758.84;5021326;28;20232;-84
2023/04/20 02:22:03;;;;;;;1.93;1.30;;;;;;;4.18;100.00;100765.59;5020184;28;20545;-83
2023/04/20 02:24:28;;;;;;;2.17;1.97;;;;;;;4.20;100.00;100759.97;5019894;28;20204;-83
2023/04/20 02:26:54;;;;;;;0.83;0.83;;;;;;;4.24;100.00;100757.53;5025056;28;20184;-83
2023/04/20 02:29:19;;;;;;;1.30;1.20;;;;;;;4.23;100.00;100755.91;5033814;28;20176;-83
2023/04/20 02:31:44;;;;;;;3.20;2.90;;;;;;;4.22;100.00;100760.50;5027060;28;20258;-85
2023/04/20 02:34:10;;;;;;;1.73;1.63;;;;;;;4.26;100.00;100758.91;5027836;28;20674;-83
2023/04/20 02:36:35;;;;;;;6.00;2.67;;;;;;;4.24;100.00;100754.84;5023617;28;20766;-84
2023/04/20 02:39:01;;;;;;;5.90;5.00;;;;;;;4.20;100.00;100751.03;5028038;28;20199;-86
2023/04/20 02:41:26;;;;;;;3.80;3.50;;;;;;;4.19;100.00;100742.09;5024571;28;20176;-84
2023/04/20 02:43:51;;;;;;;2.27;2.07;;;;;;;4.20;100.00;100743.75;5021770;28;20204;-84
2023/04/20 02:46:17;;;;;;;2.17;1.97;;;;;;;4.22;100.00;100749.69;5021328;28;20665;-83
2023/04/20 02:48:42;;;;;;;3.43;3.13;;;;;;;4.21;100.00;100756.19;5021298;28;20172;-83
2023/04/20 02:51:08;;;;;;;4.77;4.33;;;;;;;4.25;100.00;100756.47;5020856;28;20243;-83
2023/04/20 02:53:33;;;;;;;4.40;3.67;;;;;;;4.25;100.00;100751.06;5031816;23;20241;-86
2023/04/20 02:55:59;;;;;;;5.83;1.83;;;;;;;4.22;100.00;100744.28;4977349;28;20643;-86
2023/04/20 02:58:24;;;;;;;5.53;4.70;;;;;;;4.22;100.00;100747.00;4994643;28;20547;-86
2023/04/20 03:00:50;;;;;;;4.30;3.87;;;;;;;4.22;100.00;100746.19;4994845;28;20182;-86
2023/04/20 03:03:16;;;;;;;9.00;2.43;;;;;;;4.24;100.00;100741.31;4994296;28;20193;-86
2023/04/20 03:05:42;;;;;;;6.10;4.17;;;;;;;4.24;100.00;100744.84;4994510;28;20226;-86
2023/04/20 03:08:07;;;;;;;0.83;0.83;;;;;;;4.28;100.00;100748.63;4992938;28;20184;-87
2023/04/20 03:10:33;;;;;;;1.03;1.00;;;;;;;4.32;100.00;100743.50;4992917;28;20208;-86
2023/04/20 03:12:58;;;;;;;0.63;0.53;;;;;;;4.35;100.00;100740.31;4992652;28;20197;-85
2023/04/20 03:15:24;;;;;;;4.90;3.60;;;;;;;4.32;100.00;100748.91;4994087;28;20204;-86
2023/04/20 03:17:49;;;;;;;0.30;0.30;;;;;;;4.36;100.00;100750.88;4992806;28;20741;-87
2023/04/20 03:20:15;;;;;;;2.70;2.50;;;;;;;4.33;100.00;100753.25;4992911;28;20189;-87
2023/04/20 03:22:40;;;;;;;2.73;2.53;;;;;;;4.32;100.00;100748.91;4992637;28;20181;-87
2023/04/20 03:25:06;;;;;;;0.83;0.83;;;;;;;4.34;100.00;100746.75;4993721;28;20177;-87
2023/04/20 03:27:32;;;;;;;2.57;2.37;;;;;;;4.33;100.00;100756.78;4993896;28;20670;-86
2023/04/20 03:29:57;;;;;;;4.23;3.57;;;;;;;4.30;100.00;100746.47;4993866;28;20175;-87
2023/04/20 03:32:26;;;;;;;0.43;0.43;;;;;;;4.33;100.00;100750.53;4992109;28;20666;-87
2023/04/20 03:34:52;;;;;;;4.67;4.27;;;;;;;4.31;100.00;100756.22;4992273;28;20201;-87
2023/04/20 03:37:17;;;;;;;2.67;2.33;;;;;;;4.32;100.00;100743.50;4994140;28;20176;-87
2023/04/20 03:39:45;;;;;;;1.40;1.40;;;;;;;4.34;100.00;100744.91;4993562;28;20205;-87
2023/04/20 03:42:10;;;;;;;0.97;0.93;;;;;;;4.35;100.00;100735.72;4993698;28;20173;-86
2023/04/20 03:44:35;;;;;;;1.23;1.20;;;;;;;4.38;100.00;100751.41;4991984;28;20197;-87
2023/04/20 03:47:01;;;;;;;4.17;2.17;;;;;;;4.40;100.00;100741.13;4992242;28;20528;-86
2023/04/20 03:49:29;;;;;;;2.37;1.87;;;;;;;4.36;100.00;100748.16;4992402;28;20260;-87
2023/04/20 03:51:57;;;;;;;1.73;1.63;;;;;;;4.39;100.00;100739.50;4992681;28;20199;-87
2023/04/20 03:54:23;;;;;;;6.83;5.07;;;;;;;4.39;100.00;100749.50;4993352;28;20213;-87
2023/04/20 03:56:48;;;;;;;6.23;1.93;;;;;;;4.38;100.00;100751.41;4993555;28;20239;-87
2023/04/20 03:59:20;;;;;;;2.07;1.90;;;;;;;4.38;100.00;100742.47;4993146;28;20205;-86
2023/04/20 04:01:45;;;;;;;4.03;3.70;;;;;;;4.40;100.00;100753.84;4992502;28;20272;-86
2023/04/20 04:04:10;;;;;;;8.93;5.27;;;;;;;4.40;100.00;100759.25;4991758;28;20243;-88
2023/04/20 04:06:35;;;;;;;4.77;2.33;;;;;;;4.43;100.00;100756.84;4993217;28;20208;-86
2023/04/20 04:09:01;;;;;;;2.67;2.43;;;;;;;4.44;100.00;100752.25;4993152;28;20204;-87
2023/04/20 04:11:28;;;;;;;2.40;2.30;;;;;;;4.41;100.00;100761.69;4992185;28;20193;-86
2023/04/20 04:13:54;;;;;;;2.50;2.30;;;;;;;4.41;100.00;100752.78;4992700;28;20243;-87
2023/04/20 04:16:20;;;;;;;1.93;1.83;;;;;;;4.41;100.00;100758.19;4993327;28;20256;-86
2023/04/20 04:18:48;;;;;;;4.43;4.13;;;;;;;4.42;100.00;100751.69;4993027;28;20205;-87
2023/04/20 04:21:13;;;;;;;4.13;3.83;;;;;;;4.43;100.00;100753.31;4993186;28;20204;-87
2023/04/20 04:23:41;;;;;;;2.67;2.47;;;;;;;4.44;100.00;100754.94;4993171;28;20667;-86
2023/04/20 04:26:06;;;;;;;5.43;4.57;;;;;;;4.44;100.00;100755.75;4991954;28;20706;-87
2023/04/20 04:28:32;;;;;;;4.10;2.00;;;;;;;4.48;100.00;100756.88;4993105;28;20177;-86
2023/04/20 04:31:00;;;;;;;12.00;5.23;;;;;;;4.44;100.00;100754.94;4992829;28;20173;-86
2023/04/20 04:33:25;;;;;;;4.97;4.40;;;;;;;4.43;100.00;100762.25;4992873;28;20291;-87
2023/04/20 04:35:52;;;;;;;1.97;1.83;;;;;;;4.43;100.00;100754.13;4993027;28;20255;-87
2023/04/20 04:38:17;;;;;;;1.43;1.33;;;;;;;4.43;100.00;100758.72;4995040;28;20197;-87
2023/04/20 04:40:44;;;;;;;4.83;3.13;;;;;;;4.41;100.00;100750.06;4996937;28;20184;-87
2023/04/20 04:43:10;;;;;;;6.87;3.63;;;;;;;4.45;100.00;100756.56;4995889;28;20300;-85
2023/04/20 04:45:42;;;;;;;7.50;2.63;;;;;;;4.42;100.00;100746.28;4997051;28;20184;-86
2023/04/20 04:48:10;;;;;;;24.27;6.80;;;;;;;4.45;100.00;100743.03;4996763;28;20179;-86
2023/04/20 04:50:36;;;;;;;7.80;6.57;;;;;;;4.43;100.00;100743.31;4995758;28;20180;-87
2023/04/20 04:53:01;;;;;;;7.07;4.73;;;;;;;4.49;100.00;100746.88;4995645;28;20270;-85
2023/04/20 04:55:27;;;;;;;0.77;0.77;;;;;;;4.47;100.00;100744.41;4996092;28;20174;-87
2023/04/20 04:57:52;;;;;;;5.93;3.50;;;;;;;4.50;100.00;100742.28;4995656;28;20584;-86
2023/04/20 05:00:18;;;;;;;1.50;1.40;;;;;;;4.53;100.00;100753.38;4996731;28;20183;-87
2023/04/20 05:02:43;;;;;;;33.90;4.20;;;;;;;4.51;100.00;100752.00;5011791;28;20188;-87
2023/04/20 05:05:08;;;;;;;1.40;0.77;;;;;;;4.53;100.00;100753.38;4996663;28;20259;-87
2023/04/20 05:07:37;;;;;;;0.43;0.43;;;;;;;4.54;100.00;100756.91;4995531;28;20185;-87
2023/04/20 05:10:03;;;;;;;2.77;2.67;;;;;;;4.58;100.00;100761.50;4996553;28;20176;-87
2023/04/20 05:12:29;;;;;;;2.67;2.50;;;;;;;4.54;100.00;100763.13;4995364;28;20557;-87
2023/04/20 05:14:56;;;;;;;3.43;2.43;;;;;;;4.57;100.00;100757.16;4995427;28;20201;-86
2023/04/20 05:17:22;;;;;;;9.13;5.47;;;;;;;4.60;100.00;100770.16;4996678;28;20177;-87
2023/04/20 05:19:47;;;;;;;4.07;3.17;;;;;;;4.58;100.00;100768.81;4996720;28;20209;-86
2023/04/20 05:22:13;;;;;;;4.17;3.77;;;;;;;4.58;100.00;100769.63;4996147;28;20589;-87
2023/04/20 05:24:41;;;;;;;2.47;2.30;;;;;;;4.66;100.00;100773.72;4996523;28;20209;-87
2023/04/20 05:27:06;;;;;;;1.67;1.60;;;;;;;4.70;100.00;100770.22;4996231;28;20169;-87
2023/04/20 05:29:31;;;;;;;2.80;2.10;;;;;;;4.70;100.00;100775.63;4996003;28;20173;-86
2023/04/20 05:31:57;;;;;;;4.57;4.17;;;;;;;4.70;100.00;100777.53;4995818;28;20252;-85
2023/04/20 05:34:22;;;;;;;2.97;1.77;;;;;;;4.74;100.00;100776.72;4994669;28;20193;-87
2023/04/20 05:36:48;;;;;;;6.13;4.40;;;;;;;4.70;100.00;100786.47;4996188;28;20239;-86
2023/04/20 05:39:13;;;;;;;3.40;3.10;;;;;;;4.72;100.00;100780.78;4996070;28;20242;-86
2023/04/20 05:41:38;;;;;;;6.07;5.50;;;;;;;4.76;100.00;100782.69;4995972;28;20203;-87
2023/04/20 05:44:04;;;;;;;3.57;2.70;;;;;;;4.77;100.00;100789.75;4994730;28;20204;-87
2023/04/20 05:46:30;;;;;;;13.37;5.60;;;;;;;4.76;100.00;100788.09;4995027;28;20591;-86
2023/04/20 05:48:55;;;;;;;3.17;2.87;;;;;;;4.77;100.00;100792.47;4994973;28;20169;-86
2023/04/20 05:51:21;;;;;;;7.13;2.80;;;;;;;4.78;100.00;100785.16;4996177;28;20644;-87
2023/04/20 05:53:49;;;;;;;2.97;2.77;;;;;;;4.83;100.00;100800.59;4994360;28;20558;-87
2023/04/20 05:56:14;;;;;;;5.77;5.00;;;;;;;4.83;100.00;100797.88;4994594;28;20200;-87
2023/04/20 05:58:40;;;;;;;3.30;1.60;;;;;;;4.86;100.00;100800.88;4995963;28;20651;-87
2023/04/20 06:01:08;;;;;;;1.40;1.30;;;;;;;4.90;100.00;100803.84;4996012;28;20172;-87
2023/04/20 06:03:33;;;;;;;1.77;1.67;;;;;;;4.94;100.00;100805.78;4995379;28;20193;-86
2023/04/20 06:05:59;;;;;;;4.57;4.03;;;;;;;4.91;100.00;100810.91;4995624;28;20169;-86
2023/04/20 06:08:24;;;;;;;3.87;3.57;;;;;;;4.90;100.00;100803.84;4997316;28;20237;-87
2023/04/20 06:10:54;;;;;;;3.93;3.07;;;;;;;4.88;100.00;100806.00;4997756;28;20192;-87
2023/04/20 06:13:23;;;;;;;1.23;1.13;;;;;;;4.96;100.00;100806.34;4996057;28;20204;-86
2023/04/20 06:15:52;;;;;;;2.57;2.40;;;;;;;4.96;100.00;100813.66;4999032;28;20185;-87
2023/04/20 06:18:18;;;;;;;5.20;4.20;;;;;;;4.97;100.00;100812.56;5011294;28;20197;-87
2023/04/20 06:20:47;;;;;;;3.27;2.97;;;;;;;5.04;100.00;100805.81;5008182;28;20230;-87
2023/04/20 06:23:13;;;;;;;6.83;5.30;;;;;;;5.01;100.00;100809.06;5003835;28;20236;-87
2023/04/20 06:25:38;;;;;;;3.70;3.33;;;;;;;5.13;100.00;100816.94;4995136;28;20189;-87
2023/04/20 06:28:05;;;;;;;4.87;4.47;;;;;;;5.14;100.00;100809.63;4993718;28;20264;-87
2023/04/20 06:30:32;;;;;;;2.20;2.10;;;;;;;5.29;100.00;100807.78;4993198;28;20181;-88
2023/04/20 06:33:01;;;;;;;3.70;3.40;;;;;;;5.51;100.00;100809.47;4993372;28;20197;-87
2023/04/20 06:35:29;;;;;;;2.63;2.47;;;;;;;5.62;100.00;100811.09;4994880;28;20173;-87
2023/04/20 06:37:58;;;;;;;3.27;2.97;;;;;;;5.71;100.00;100803.25;4994881;28;20197;-87
2023/04/20 06:40:26;;;;;;;6.13;5.63;;;;;;;5.54;100.00;100808.94;4994587;28;20169;-87
2023/04/20 06:42:51;;;;;;;2.30;2.13;;;;;;;5.48;100.00;100809.97;4994348;28;20636;-88
2023/04/20 06:45:19;;;;;;;5.90;1.57;;;;;;;5.60;100.00;100807.84;4994632;28;20165;-89
2023/04/20 06:47:45;;;;;;;2.37;2.27;;;;;;;5.70;100.00;100818.69;4994700;28;20173;-87
2023/04/20 06:50:10;;;;;;;6.33;5.73;;;;;;;5.63;100.00;100812.72;4993215;28;20666;-87
2023/04/20 06:52:37;;;;;;;1.83;1.73;;;;;;;5.63;100.00;100812.72;4993559;28;20177;-87
2023/04/20 06:55:03;;;;;;;4.23;3.87;;;;;;;5.53;100.00;100818.13;4994134;28;20207;-88
2023/04/20 06:57:30;;;;;;;0.43;0.43;;;;;;;5.64;100.00;100817.06;4992934;28;20185;-86
2023/04/20 06:59:57;;;;;;;2.70;1.67;;;;;;;5.69;100.00;100817.06;4993518;28;20177;-86
2023/04/20 07:02:23;;;;;;;0.77;0.73;;;;;;;5.68;100.00;100812.75;4992404;28;20173;-87
2023/04/20 07:04:51;;;;;;;2.27;2.03;;;;;;;5.68;100.00;100815.44;4994209;28;20541;-87
2023/04/20 07:07:16;;;;;;;4.17;3.33;;;;;;;5.75;100.00;100809.75;4994579;28;20185;-87
2023/04/20 07:09:41;;;;;;;2.97;2.73;;;;;;;5.78;100.00;100807.31;4993950;28;20173;-86
2023/04/20 07:12:07;;;;;;;2.20;2.07;;;;;;;5.89;100.00;100813.56;4992623;28;20488;-86
2023/04/20 07:14:35;;;;;;;3.73;3.17;;;;;;;6.02;100.00;100812.22;4994095;28;20243;-87
2023/04/20 07:17:00;;;;;;;3.07;2.63;;;;;;;5.95;100.00;100817.94;4992827;28;20176;-87
2023/04/20 07:19:25;;;;;;;2.53;2.33;;;;;;;5.93;100.00;100812.78;4992833;28;20746;-87
2023/04/20 07:21:53;;;;;;;1.70;1.60;;;;;;;5.93;100.00;100823.63;4994047;28;20177;-87
2023/04/20 07:24:20;;;;;;;3.43;3.13;;;;;;;6.03;100.00;100828.22;4993569;28;20231;-87
2023/04/20 07:26:46;;;;;;;4.03;3.67;;;;;;;6.01;100.00;100824.16;4993976;28;20227;-87
2023/04/20 07:29:11;;;;;;;3.27;3.07;;;;;;;6.00;100.00;100812.50;4993863;28;20173;-88
2023/04/20 07:31:36;;;;;;;6.57;4.73;;;;;;;6.07;100.00;100823.88;4992583;28;20184;-87
2023/04/20 07:34:02;;;;;;;4.00;3.67;;;;;;;6.17;100.00;100831.22;4992146;28;20658;-87
2023/04/20 07:36:27;;;;;;;3.50;2.90;;;;;;;6.10;100.00;100817.94;4994034;28;20256;-88
2023/04/20 07:38:54;;;;;;;4.53;3.60;;;;;;;6.13;100.00;100828.22;4993686;28;20243;-87
2023/04/20 07:41:21;;;;;;;6.77;5.33;;;;;;;6.01;100.00;100822.25;4993716;28;20182;-88
2023/04/20 07:43:47;;;;;;;1.90;1.73;;;;;;;6.19;100.00;100832.56;4992640;28;20189;-88
2023/04/20 07:46:28;;;;;;;2.47;2.37;;;;;;;6.23;100.00;100835.56;4992296;28;20674;-88
2023/04/20 07:48:55;;;;;;;3.83;3.53;;;;;;;6.23;100.00;100835.56;4993556;28;20165;-88
2023/04/20 07:51:21;;;;;;;2.13;2.03;;;;;;;6.28;100.00;100843.69;4992203;28;20640;-88
2023/04/20 07:53:49;;;;;;;1.30;1.27;;;;;;;6.45;100.00;100840.69;4991829;28;20209;-88
2023/04/20 07:56:17;;;;;;;1.73;1.63;;;;;;;6.42;100.00;100839.31;4993388;28;20177;-88
2023/04/20 07:58:45;;;;;;;5.33;4.80;;;;;;;6.24;100.00;100835.28;4993186;28;20200;-87
2023/04/20 08:01:10;;;;;;;3.97;3.67;;;;;;;6.24;100.00;100837.19;4991952;28;20184;-88
2023/04/20 08:03:35;;;;;;;3.23;2.93;;;;;;;6.26;100.00;100841.25;4993001;28;20189;-86
2023/04/20 08:06:01;;;;;;;1.67;1.57;;;;;;;6.39;100.00;100844.50;4991714;28;20215;-88
2023/04/20 08:08:26;;;;;;;3.60;3.17;;;;;;;6.34;100.00;100839.88;4993024;28;20275;-87
2023/04/20 08:10:54;;;;;;;0.63;0.63;;;;;;;6.40;100.00;100846.13;4993193;28;20173;-87
2023/04/20 08:13:22;;;;;;;3.97;3.67;;;;;;;6.39;100.00;100837.16;4992305;28;20189;-86
2023/04/20 08:15:47;;;;;;;3.53;3.33;;;;;;;6.27;100.00;100842.06;4993208;28;20172;-87
2023/04/20 08:18:19;;;;;;;3.57;3.23;;;;;;;6.31;100.00;100850.47;4992672;28;20201;-87
2023/04/20 08:20:49;;;;;;;5.10;4.70;;;;;;;6.25;100.00;100838.81;4990533;28;20195;-88
2023/04/20 08:23:26;;;;;;;4.37;3.97;;;;;;;6.24;100.00;100851.56;4991560;28;20193;-88
2023/04/20 08:25:53;;;;;;;3.53;3.23;;;;;;;6.35;100.00;100841.50;4993028;28;20193;-87
2023/04/20 08:28:22;;;;;;;3.87;2.83;;;;;;;6.51;99.98;100840.41;4991460;28;20195;-87
2023/04/20 08:30:51;;;;;;;6.53;6.03;;;;;;;6.50;99.41;100836.03;4991669;28;20227;-88
2023/04/20 08:33:19;;;;;;;1.13;1.13;;;;;;;6.57;99.25;100844.72;4991225;28;20228;-87
2023/04/20 08:35:47;;;;;;;5.70;5.23;;;;;;;6.70;98.60;100837.09;4991251;28;20576;-87
2023/04/20 08:38:16;;;;;;;3.53;2.90;;;;;;;6.92;98.54;100840.28;4991285;28;20668;-88
2023/04/20 08:40:45;;;;;;;3.43;3.17;;;;;;;6.88;98.07;100841.94;4991724;28;20203;-88
2023/04/20 08:43:10;;;;;;;5.40;5.00;;;;;;;6.75;96.21;100845.22;4991036;28;20209;-88
2023/04/20 08:45:36;;;;;;;3.87;3.57;;;;;;;6.79;95.40;100840.84;4991648;28;20284;-87
2023/04/20 08:48:11;;;;;;;4.77;4.30;;;;;;;6.76;95.28;100846.84;4991394;28;20227;-88
2023/04/20 08:50:42;;;;;;;1.23;1.13;;;;;;;6.80;95.93;100856.09;4991708;28;20180;-88
2023/04/20 08:53:08;;;;;;;2.30;2.10;;;;;;;6.91;96.05;100857.66;5016520;22;20216;-82
2023/04/20 08:55:34;;;;;;;2.03;1.83;;;;;;;6.89;95.31;100857.13;4990974;28;20208;-84
2023/04/20 08:57:59;;;;;;;2.57;2.00;;;;;;;6.88;95.16;100849.25;4994473;28;20193;-82
2023/04/20 09:00:24;;;;;;;0.00;0.00;;;;;;;6.96;94.77;100854.13;4993662;28;20182;-83
2023/04/20 09:02:51;;;;;;;2.03;1.90;;;;;;;7.10;94.15;100853.25;4993549;28;20697;-82
2023/04/20 09:05:31;;;;;;;2.13;1.93;;;;;;;7.18;93.57;100859.19;4995031;28;20200;-83
2023/04/20 09:07:58;;;;;;;1.87;1.77;;;;;;;7.23;90.99;100849.09;4993917;28;20253;-82
2023/04/20 09:10:25;;;;;;;2.93;2.73;;;;;;;7.36;90.13;100843.06;4992860;28;20177;-83
2023/04/20 09:12:50;;;;;;;3.93;3.63;;;;;;;7.44;89.13;100839.78;4992646;28;20208;-83
2023/04/20 09:15:29;;;;;;;1.07;0.97;;;;;;;7.36;87.19;100831.38;4992968;28;20201;-81
2023/04/20 09:17:55;;;;;;;0.30;0.30;;;;;;;7.71;86.96;100850.22;4993224;28;20207;-82
2023/04/20 09:20:28;;;;;;;6.43;4.70;;;;;;;7.76;86.42;100844.72;4994357;28;20177;-83
2023/04/20 09:22:53;;;;;;;2.47;2.37;;;;;;;7.58;83.80;100831.81;4993133;28;20184;-83
2023/04/20 09:25:20;;;;;;;5.47;4.87;;;;;;;7.51;83.87;100841.34;4995857;28;20197;-82
2023/04/20 09:27:59;;;;;;;1.57;1.47;;;;;;;7.46;83.45;100844.91;4996692;28;20224;-82
2023/04/20 09:30:35;;;;;;;5.17;4.77;;;;;;;7.28;83.59;100837.41;4998181;28;20674;-82
2023/04/20 09:33:02;;;;;;;2.87;2.67;;;;;;;7.47;84.35;100844.63;4997834;28;20235;-83
2023/04/20 09:35:27;;;;;;;2.63;2.43;;;;;;;7.47;83.47;100838.38;4997423;28;20608;-83
2023/04/20 09:37:53;;;;;;;6.67;2.83;;;;;;;7.44;83.58;100842.50;4996738;28;20201;-83
2023/04/20 09:40:20;;;;;;;1.43;1.33;;;;;;;7.32;82.99;100839.28;4995964;28;20612;-83
2023/04/20 09:42:47;;;;;;;1.60;1.50;;;;;;;7.45;83.68;100843.31;4997193;28;20173;-83
2023/04/20 09:45:15;;;;;;;4.30;4.00;;;;;;;7.43;84.14;100850.94;4996159;28;20201;-83
2023/04/20 09:47:41;;;;;;;4.17;3.80;;;;;;;7.51;82.99;100842.16;4997152;28;20179;-82
2023/04/20 09:50:09;;;;;;;1.10;1.07;;;;;;;7.70;83.03;100848.59;4995956;28;20568;-83
2023/04/20 09:52:36;;;;;;;1.13;1.03;;;;;;;7.69;82.99;100846.16;4997216;28;20181;-84
2023/04/20 09:55:03;;;;;;;3.20;1.60;;;;;;;7.71;83.32;100849.41;4995640;28;20216;-83
2023/04/20 09:57:31;;;;;;;3.10;2.90;;;;;;;7.52;82.75;100843.78;4996072;28;20181;-83
2023/04/20 09:59:58;;;;;;;6.93;3.43;;;;;;;7.48;83.02;100840.00;4995525;28;20201;-82
2023/04/20 10:02:24;;;;;;;4.50;4.17;;;;;;;7.51;83.69;100846.78;4995806;28;20655;-83
2023/04/20 10:05:00;;;;;;;3.77;3.43;;;;;;;7.59;82.06;100838.88;4995288;28;20220;-83
2023/04/20 10:07:27;;;;;;;2.70;2.53;;;;;;;8.11;82.21;100829.25;4997290;28;20177;-83
2023/04/20 10:10:06;;;;;;;1.00;1.00;;;;;;;8.11;81.12;100826.53;4997457;28;20223;-83
2023/04/20 10:12:32;;;;;;;1.67;1.57;;;;;;;8.01;80.97;100832.03;4995500;28;20181;-84
2023/04/20 10:14:59;;;;;;;3.67;3.37;;;;;;;7.76;80.33;100824.88;4995215;28;20204;-82
2023/04/20 10:17:32;;;;;;;1.43;1.33;;;;;;;7.70;80.39;100834.19;4995177;28;20203;-82
2023/04/20 10:19:58;;;;;;;0.93;0.87;;;;;;;7.81;81.10;100851.22;4994949;28;20231;-83
2023/04/20 10:22:34;;;;;;;4.77;4.37;;;;;;;7.70;80.92;100840.44;4996236;28;20636;-83
2023/04/20 10:25:01;;;;;;;1.00;1.00;;;;;;;7.81;81.23;100845.78;4996270;28;20224;-83
2023/04/20 10:27:26;;;;;;;0.40;0.40;;;;;;;7.94;81.31;100850.59;4994710;28;20185;-83
2023/04/20 10:29:52;;;;;;;0.87;0.87;;;;;;;7.94;80.85;100842.41;4994453;28;20184;-83
2023/04/20 10:32:22;;;;;;;3.00;2.37;;;;;;;7.94;79.40;100831.53;4996304;28;20546;-82
2023/04/20 10:34:58;;;;;;;1.03;0.77;;;;;;;8.08;79.08;100832.50;4998154;28;20240;-83
2023/04/20 10:37:24;;;;;;;0.73;0.73;;;;;;;8.27;78.63;100840.81;4995290;28;20202;-83
2023/04/20 10:39:49;;;;;;;1.43;1.33;;;;;;;8.10;77.42;100810.44;4996216;28;20727;-85
2023/04/20 10:42:15;;;;;;;3.70;3.47;;;;;;;8.02;78.13;100820.88;4994829;28;20181;-83
2023/04/20 10:44:50;;;;;;;3.27;2.97;;;;;;;7.90;79.32;100836.75;4994983;28;20690;-83
2023/04/20 10:47:17;;;;;;;1.47;1.37;;;;;;;7.94;79.20;100836.97;4995931;28;20643;-84
2023/04/20 10:49:42;;;;;;;0.67;0.60;;;;;;;7.99;78.48;100839.69;4996107;28;20795;-83
2023/04/20 10:52:08;;;;;;;1.93;1.63;;;;;;;7.98;77.69;100819.00;4994285;28;20275;-83
2023/04/20 10:54:38;;;;;;;2.27;2.07;;;;;;;7.97;76.77;100820.91;4995080;28;20208;-82
2023/04/20 10:57:05;;;;;;;2.90;2.63;;;;;;;7.92;76.86;100829.09;4995932;28;20245;-83
2023/04/20 10:59:31;;;;;;;0.63;0.63;;;;;;;7.96;77.30;100824.75;4985467;28;20208;-83
2023/04/20 11:01:58;;;;;;;1.63;1.53;;;;;;;7.95;77.05;100828.53;4974246;28;20181;-83
2023/04/20 11:04:31;;;;;;;1.57;1.47;;;;;;;8.00;76.75;100822.25;4975560;28;20194;-82
2023/04/20 11:07:07;;;;;;;0.90;0.90;;;;;;;8.14;75.58;100819.69;4976043;28;20252;-82
2023/04/20 11:09:33;;;;;;;1.17;1.13;;;;;;;8.24;76.41;100828.56;4974866;28;20607;-82
2023/04/20 11:12:00;;;;;;;1.73;1.63;;;;;;;8.16;76.74;100826.47;4974203;28;20190;-85
2023/04/20 11:14:26;;;;;;;0.43;0.43;;;;;;;8.35;77.64;100840.19;4973706;28;20758;-82
2023/04/20 11:16:52;;;;;;;1.60;1.13;;;;;;;8.70;77.75;100832.78;4975233;28;20265;-82
2023/04/20 11:19:29;;;;;;;1.67;1.57;;;;;;;8.57;76.61;100815.22;4973556;28;20273;-83
2023/04/20 11:21:54;;;;;;;2.83;2.13;;;;;;;8.30;75.87;100818.44;4975391;28;20651;-82
2023/04/20 11:24:21;;;;;;;1.70;1.60;;;;;;;8.34;76.63;100814.88;4974816;28;20277;-82